createdAt,value
2022-08-31T00:00:33.275Z,13.40
2022-08-31T00:03:19.280Z,13.40
2022-08-31T00:05:47.155Z,13.40
2022-08-31T00:08:14.591Z,13.40
2022-08-31T00:10:46.257Z,13.40
2022-08-31T00:13:13.958Z,13.40
2022-08-31T00:15:42.850Z,13.30
2022-08-31T00:18:10.744Z,13.30
2022-08-31T00:20:38.491Z,13.30
2022-08-31T00:23:12.987Z,13.30
2022-08-31T00:25:45.657Z,13.20
2022-08-31T00:28:19.852Z,13.10
2022-08-31T00:30:48.752Z,13.10
2022-08-31T00:33:16.460Z,12.90
2022-08-31T00:35:43.894Z,12.90
2022-08-31T00:38:12.321Z,12.90
2022-08-31T00:40:44.299Z,12.90
2022-08-31T00:43:32.162Z,12.90
2022-08-31T00:45:59.480Z,12.90
2022-08-31T00:48:27.172Z,12.90
2022-08-31T00:50:54.756Z,12.90
2022-08-31T00:53:22.159Z,12.90
2022-08-31T00:55:49.420Z,12.90
2022-08-31T00:58:16.831Z,13.00
2022-08-31T01:00:46.059Z,13.00
2022-08-31T01:03:13.528Z,13.10
2022-08-31T01:05:41.060Z,13.10
2022-08-31T01:08:08.574Z,13.10
2022-08-31T01:10:39.326Z,13.10
2022-08-31T01:13:09.037Z,13.00
2022-08-31T01:15:38.139Z,13.10
2022-08-31T01:18:11.682Z,13.10
2022-08-31T01:20:57.179Z,13.00
2022-08-31T01:23:29.224Z,13.00
2022-08-31T01:25:58.551Z,12.90
2022-08-31T01:28:26.914Z,12.90
2022-08-31T01:31:46.805Z,12.90
2022-08-31T01:34:14.902Z,12.90
2022-08-31T01:36:43.950Z,12.90
2022-08-31T01:39:12.017Z,12.90
2022-08-31T01:41:43.561Z,12.90
2022-08-31T01:44:13.534Z,12.90
2022-08-31T01:46:41.370Z,12.90
2022-08-31T01:49:08.811Z,12.90
2022-08-31T01:51:36.228Z,12.90
2022-08-31T01:54:04.289Z,13.00
2022-08-31T01:56:34.875Z,12.90
2022-08-31T01:59:08.297Z,12.90
2022-08-31T02:01:57.998Z,12.90
2022-08-31T02:04:29.164Z,12.90
2022-08-31T02:06:59.824Z,12.90
2022-08-31T02:09:29.375Z,13.00
2022-08-31T02:11:56.894Z,13.00
2022-08-31T02:14:24.147Z,13.00
2022-08-31T02:16:51.609Z,13.00
2022-08-31T02:19:18.945Z,13.00
2022-08-31T02:21:46.214Z,13.10
2022-08-31T02:24:13.672Z,13.00
2022-08-31T02:26:41.577Z,13.00
2022-08-31T02:29:08.858Z,13.00
2022-08-31T02:31:37.077Z,13.00
2022-08-31T02:34:04.518Z,13.00
2022-08-31T02:36:35.693Z,13.00
2022-08-31T02:39:05.866Z,13.00
2022-08-31T02:41:34.352Z,13.00
2022-08-31T02:44:01.699Z,13.00
2022-08-31T02:46:32.202Z,13.00
2022-08-31T02:49:33.004Z,13.00
2022-08-31T02:52:01.154Z,13.00
2022-08-31T02:54:28.495Z,13.00
2022-08-31T02:56:55.783Z,13.00
2022-08-31T02:59:23.270Z,13.00
2022-08-31T03:01:55.783Z,13.00
2022-08-31T03:04:23.457Z,13.00
2022-08-31T03:06:50.744Z,13.00
2022-08-31T03:09:21.952Z,13.00
2022-08-31T03:11:49.199Z,13.00
2022-08-31T03:14:16.724Z,13.00
2022-08-31T03:16:46.082Z,13.00
2022-08-31T03:19:20.820Z,13.00
2022-08-31T03:21:48.373Z,13.00
2022-08-31T03:24:23.545Z,13.00
2022-08-31T03:26:55.123Z,13.00
2022-08-31T03:29:22.335Z,13.00
2022-08-31T03:32:09.754Z,13.00
2022-08-31T03:34:38.429Z,13.00
2022-08-31T03:37:06.202Z,13.00
2022-08-31T03:39:33.904Z,13.00
2022-08-31T03:42:01.191Z,13.00
2022-08-31T03:44:31.591Z,13.00
2022-08-31T03:47:01.948Z,12.90
2022-08-31T03:49:35.318Z,12.90
2022-08-31T03:52:10.756Z,12.90
2022-08-31T03:54:45.401Z,12.90
2022-08-31T03:57:14.120Z,12.90
2022-08-31T03:59:52.220Z,12.90
2022-08-31T04:02:19.524Z,12.90
2022-08-31T04:05:05.427Z,12.90
2022-08-31T04:07:59.722Z,12.90
2022-08-31T04:10:54.315Z,12.90
2022-08-31T04:13:33.958Z,12.90
2022-08-31T04:16:22.771Z,12.90
2022-08-31T04:19:10.036Z,12.90
2022-08-31T04:21:45.980Z,12.90
2022-08-31T04:24:13.838Z,12.90
2022-08-31T04:26:42.035Z,12.90
2022-08-31T04:29:13.426Z,13.00
2022-08-31T04:31:47.072Z,12.90
2022-08-31T04:34:15.574Z,12.90
2022-08-31T04:36:45.522Z,12.80
2022-08-31T04:39:24.253Z,12.80
2022-08-31T04:41:57.122Z,12.80
2022-08-31T04:44:26.937Z,12.70
2022-08-31T04:46:57.115Z,12.70
2022-08-31T04:49:24.642Z,12.60
2022-08-31T04:51:51.994Z,12.60
2022-08-31T04:54:22.589Z,12.60
2022-08-31T04:56:54.314Z,12.60
2022-08-31T04:59:29.416Z,12.60
2022-08-31T05:02:28.809Z,12.60
2022-08-31T05:05:18.400Z,12.60
2022-08-31T05:07:49.040Z,12.60
2022-08-31T05:10:21.898Z,12.60
2022-08-31T05:12:52.335Z,12.60
2022-08-31T05:15:21.700Z,12.50
2022-08-31T05:17:49.655Z,12.50
2022-08-31T05:20:17.389Z,12.50
2022-08-31T05:22:44.687Z,12.50
2022-08-31T05:25:12.126Z,12.60
2022-08-31T05:27:41.304Z,12.60
2022-08-31T05:30:09.485Z,12.60
2022-08-31T05:32:48.262Z,12.60
2022-08-31T05:35:15.744Z,12.60
2022-08-31T05:37:53.170Z,12.60
2022-08-31T05:40:22.309Z,12.70
2022-08-31T05:43:05.556Z,12.70
2022-08-31T05:45:44.477Z,12.70
2022-08-31T05:48:29.860Z,12.70
2022-08-31T05:51:11.622Z,12.70
2022-08-31T05:53:51.702Z,12.70
2022-08-31T05:56:31.471Z,12.70
2022-08-31T05:59:11.598Z,12.70
2022-08-31T06:01:45.111Z,12.70
2022-08-31T06:04:18.558Z,12.70
2022-08-31T06:10:11.519Z,12.70
2022-08-31T06:16:55.640Z,12.80
2022-08-31T06:27:25.168Z,13.00
2022-08-31T06:33:22.083Z,13.00
2022-08-31T06:36:01.258Z,13.00
2022-08-31T06:38:51.869Z,13.00
2022-08-31T06:41:40.205Z,13.10
2022-08-31T06:44:39.625Z,13.00
2022-08-31T06:47:18.703Z,13.00
2022-08-31T06:49:48.187Z,13.00
2022-08-31T06:52:15.714Z,13.00
2022-08-31T06:54:46.238Z,13.00
2022-08-31T06:57:45.728Z,13.10
2022-08-31T07:00:33.833Z,13.10
2022-08-31T07:03:23.365Z,13.10
2022-08-31T07:05:53.599Z,13.10
2022-08-31T07:08:22.690Z,13.20
2022-08-31T07:10:52.298Z,13.20
2022-08-31T07:13:22.046Z,13.30
2022-08-31T07:15:53.713Z,13.30
2022-08-31T07:18:22.111Z,13.30
2022-08-31T07:20:51.164Z,13.30
2022-08-31T07:23:21.824Z,13.30
2022-08-31T07:25:57.402Z,13.20
2022-08-31T07:28:25.184Z,13.10
2022-08-31T07:30:53.665Z,13.10
2022-08-31T07:33:21.098Z,13.10
2022-08-31T07:35:54.039Z,13.20
2022-08-31T07:39:01.677Z,13.10
2022-08-31T07:41:47.945Z,13.20
2022-08-31T07:44:18.682Z,13.20
2022-08-31T07:46:48.599Z,13.20
2022-08-31T07:49:17.576Z,13.20
2022-08-31T07:52:29.975Z,13.20
2022-08-31T07:55:25.917Z,13.30
2022-08-31T07:57:56.250Z,13.30
2022-08-31T08:00:30.258Z,13.30
2022-08-31T08:03:05.158Z,13.40
2022-08-31T08:05:56.629Z,13.50
2022-08-31T08:08:34.926Z,13.50
2022-08-31T08:11:37.983Z,13.50
2022-08-31T08:14:38.866Z,13.50
2022-08-31T08:17:30.524Z,13.60
2022-08-31T08:20:11.602Z,13.60
2022-08-31T08:22:54.353Z,13.50
2022-08-31T08:26:01.584Z,13.60
2022-08-31T08:28:49.267Z,13.70
2022-08-31T08:31:23.210Z,13.70
2022-08-31T08:33:54.911Z,13.80
2022-08-31T08:36:25.367Z,13.80
2022-08-31T08:39:00.476Z,13.80
2022-08-31T08:41:32.086Z,13.80
2022-08-31T08:44:05.419Z,13.80
2022-08-31T08:46:48.946Z,13.80
2022-08-31T08:49:50.878Z,13.90
2022-08-31T08:52:30.250Z,14.00
2022-08-31T08:55:04.369Z,14.00
2022-08-31T08:57:42.547Z,13.90
2022-08-31T09:00:19.059Z,13.90
2022-08-31T09:03:21.386Z,14.00
2022-08-31T09:06:32.185Z,14.10
2022-08-31T09:09:23.125Z,14.10
2022-08-31T09:12:23.281Z,14.20
2022-08-31T09:15:39.099Z,14.20
2022-08-31T09:19:29.824Z,14.20
2022-08-31T09:26:51.697Z,14.10
2022-08-31T09:29:45.247Z,14.00
2022-08-31T09:32:38.365Z,14.00
2022-08-31T09:35:24.003Z,14.00
2022-08-31T09:38:11.178Z,14.10
2022-08-31T09:40:52.610Z,14.10
2022-08-31T09:43:38.776Z,14.20
2022-08-31T09:46:27.588Z,14.30
2022-08-31T09:48:58.369Z,14.40
2022-08-31T09:51:33.805Z,14.40
2022-08-31T09:54:34.866Z,14.40
2022-08-31T09:57:08.010Z,14.50
2022-08-31T09:59:44.152Z,14.60
2022-08-31T10:02:24.552Z,14.70
2022-08-31T10:04:54.648Z,14.80
2022-08-31T10:07:42.055Z,14.90
2022-08-31T10:10:27.911Z,14.80
2022-08-31T10:13:00.848Z,14.80
2022-08-31T10:15:47.269Z,14.80
2022-08-31T10:18:33.949Z,14.90
2022-08-31T10:21:09.162Z,15.00
2022-08-31T10:23:54.648Z,15.00
2022-08-31T10:26:37.546Z,15.10
2022-08-31T10:29:32.125Z,15.20
2022-08-31T10:32:06.698Z,15.30
2022-08-31T10:34:59.156Z,15.40
2022-08-31T10:37:55.100Z,15.40
2022-08-31T10:40:26.575Z,15.50
2022-08-31T10:43:18.943Z,15.70
2022-08-31T10:45:52.899Z,15.70
2022-08-31T10:48:23.198Z,15.60
2022-08-31T10:51:20.479Z,15.60
2022-08-31T10:53:59.989Z,15.50
2022-08-31T10:56:36.899Z,15.50
2022-08-31T10:59:15.335Z,15.60
2022-08-31T11:01:53.403Z,15.80
2022-08-31T11:04:36.157Z,15.90
2022-08-31T11:07:25.131Z,16.00
2022-08-31T11:09:58.209Z,16.00
2022-08-31T11:12:42.642Z,16.10
2022-08-31T11:15:29.055Z,16.20
2022-08-31T11:18:15.985Z,16.20
2022-08-31T11:21:26.385Z,16.20
2022-08-31T11:24:14.906Z,16.30
2022-08-31T11:27:19.428Z,16.30
2022-08-31T11:30:12.644Z,16.20
2022-08-31T11:32:46.411Z,16.10
2022-08-31T11:35:15.661Z,16.10
2022-08-31T11:37:56.181Z,16.20
2022-08-31T11:40:41.863Z,16.20
2022-08-31T11:43:28.200Z,16.20
2022-08-31T11:45:56.345Z,16.20
2022-08-31T11:48:59.258Z,16.30
2022-08-31T11:51:42.593Z,16.30
2022-08-31T11:54:15.352Z,16.30
2022-08-31T11:56:47.657Z,16.40
2022-08-31T11:59:35.433Z,16.40
2022-08-31T12:02:24.066Z,16.40
2022-08-31T12:04:53.627Z,16.40
2022-08-31T12:07:45.346Z,16.40
2022-08-31T12:10:18.283Z,16.40
2022-08-31T12:13:07.668Z,16.40
2022-08-31T12:16:07.012Z,16.40
2022-08-31T12:18:38.640Z,16.40
2022-08-31T12:21:53.431Z,16.50
2022-08-31T12:24:49.436Z,16.50
2022-08-31T12:27:40.215Z,16.50
2022-08-31T12:30:31.026Z,16.50
2022-08-31T12:33:04.534Z,16.60
2022-08-31T12:35:33.531Z,16.60
2022-08-31T12:38:17.046Z,16.70
2022-08-31T12:40:54.692Z,16.70
2022-08-31T12:43:54.661Z,16.70
2022-08-31T12:47:01.280Z,16.60
2022-08-31T12:49:59.541Z,16.60
2022-08-31T12:52:46.989Z,16.60
2022-08-31T12:55:39.180Z,16.60
2022-08-31T12:58:26.042Z,16.60
2022-08-31T13:01:08.546Z,16.70
2022-08-31T13:03:40.858Z,16.70
2022-08-31T13:06:13.850Z,16.70
2022-08-31T13:08:47.776Z,16.80
2022-08-31T13:11:34.992Z,16.80
2022-08-31T13:14:08.723Z,16.80
2022-08-31T13:16:39.040Z,16.80
2022-08-31T13:19:07.771Z,16.80
2022-08-31T13:21:37.014Z,16.80
2022-08-31T13:24:10.723Z,16.80
2022-08-31T13:26:38.801Z,16.80
2022-08-31T13:29:10.423Z,16.80
2022-08-31T13:31:50.090Z,16.80
2022-08-31T13:34:19.290Z,16.90
2022-08-31T13:36:53.792Z,16.90
2022-08-31T13:39:26.586Z,17.00
2022-08-31T13:42:22.939Z,17.00
2022-08-31T13:45:09.853Z,17.00
2022-08-31T13:47:48.774Z,17.00
2022-08-31T13:50:32.806Z,17.00
2022-08-31T13:55:51.930Z,17.00
2022-08-31T13:58:32.377Z,17.00
2022-08-31T14:01:24.333Z,16.90
2022-08-31T14:03:59.145Z,16.90
2022-08-31T14:06:33.958Z,16.90
2022-08-31T14:09:23.522Z,16.90
2022-08-31T14:12:00.336Z,16.90
2022-08-31T14:14:40.282Z,16.90
2022-08-31T14:17:15.654Z,16.80
2022-08-31T14:19:45.273Z,16.80
2022-08-31T14:22:29.616Z,16.80
2022-08-31T14:24:57.497Z,16.70
2022-08-31T14:27:24.775Z,16.70
2022-08-31T14:29:53.076Z,16.70
2022-08-31T14:32:22.369Z,16.70
2022-08-31T14:34:51.173Z,16.70
2022-08-31T14:37:23.259Z,16.70
2022-08-31T14:39:53.839Z,16.60
2022-08-31T14:42:34.821Z,16.60
2022-08-31T14:45:04.309Z,16.60
2022-08-31T14:47:44.015Z,16.60
2022-08-31T14:50:16.717Z,16.60
2022-08-31T14:52:46.727Z,16.60
2022-08-31T14:55:15.276Z,16.60
2022-08-31T14:57:45.953Z,16.60
2022-08-31T15:00:23.109Z,16.60
2022-08-31T15:02:55.144Z,16.60
2022-08-31T15:05:27.887Z,16.60
2022-08-31T15:07:57.246Z,16.50
2022-08-31T15:10:26.057Z,16.50
2022-08-31T15:12:53.864Z,16.50
2022-08-31T15:18:27.763Z,16.60
2022-08-31T15:20:56.044Z,16.50
2022-08-31T15:23:23.302Z,16.50
2022-08-31T15:25:50.688Z,16.50
2022-08-31T15:28:18.654Z,16.50
2022-08-31T15:30:46.232Z,16.50
2022-08-31T15:33:13.644Z,16.50
2022-08-31T15:35:42.089Z,16.50
2022-08-31T15:38:10.363Z,16.50
2022-08-31T15:40:39.180Z,16.60
2022-08-31T15:43:09.672Z,16.60
2022-08-31T15:45:37.254Z,16.70
2022-08-31T15:48:23.575Z,16.70
2022-08-31T15:50:57.793Z,16.80
2022-08-31T15:53:26.190Z,16.80
2022-08-31T15:55:54.063Z,16.70
2022-08-31T15:58:24.843Z,16.70
2022-08-31T16:00:52.914Z,16.70
2022-08-31T16:03:20.889Z,16.70
2022-08-31T16:05:48.735Z,16.70
2022-08-31T16:08:16.536Z,16.70
2022-08-31T16:10:46.639Z,16.70
2022-08-31T16:13:19.511Z,16.70
2022-08-31T16:15:52.632Z,16.80
2022-08-31T16:18:22.484Z,16.80
2022-08-31T16:20:52.139Z,16.90
2022-08-31T16:23:21.740Z,16.90
2022-08-31T16:25:49.672Z,16.90
2022-08-31T16:28:19.873Z,16.90
2022-08-31T16:30:48.200Z,16.90
2022-08-31T16:33:16.051Z,16.90
2022-08-31T16:35:46.043Z,16.90
2022-08-31T16:38:14.762Z,16.80
2022-08-31T16:40:42.927Z,16.80
2022-08-31T16:43:11.404Z,16.80
2022-08-31T16:45:42.246Z,16.70
2022-08-31T16:48:31.153Z,16.70
2022-08-31T16:51:02.188Z,16.70
2022-08-31T16:53:30.515Z,16.70
2022-08-31T16:56:00.409Z,16.70
2022-08-31T17:01:24.842Z,16.70
2022-08-31T17:03:56.132Z,16.70
2022-08-31T17:06:29.734Z,16.70
2022-08-31T17:09:03.078Z,16.60
2022-08-31T17:11:38.717Z,16.50
2022-08-31T17:14:11.629Z,16.40
2022-08-31T17:16:40.319Z,16.40
2022-08-31T17:19:13.103Z,16.30
2022-08-31T17:21:49.817Z,16.20
2022-08-31T17:24:30.545Z,16.10
2022-08-31T17:27:02.037Z,16.10
2022-08-31T17:29:43.552Z,16.00
2022-08-31T17:32:13.647Z,16.00
2022-08-31T17:34:43.260Z,15.90
2022-08-31T17:37:15.338Z,15.90
2022-08-31T17:39:48.327Z,15.80
2022-08-31T17:42:21.248Z,15.80
2022-08-31T17:44:52.335Z,15.80
2022-08-31T17:47:22.194Z,15.70
2022-08-31T17:49:51.161Z,15.70
2022-08-31T17:52:21.975Z,15.60
2022-08-31T17:54:51.451Z,15.60
2022-08-31T17:57:25.450Z,15.50
2022-08-31T17:59:55.176Z,15.50
2022-08-31T18:02:31.527Z,15.50
2022-08-31T18:05:00.617Z,15.50
2022-08-31T18:07:28.530Z,15.50
2022-08-31T18:09:58.137Z,15.50
2022-08-31T18:12:26.042Z,15.50
2022-08-31T18:14:54.699Z,15.40
2022-08-31T18:17:22.561Z,15.40
2022-08-31T18:19:50.123Z,15.40
2022-08-31T18:22:18.493Z,15.40
2022-08-31T18:24:46.268Z,15.30
2022-08-31T18:27:19.333Z,15.30
2022-08-31T18:29:49.559Z,15.30
2022-08-31T18:32:17.564Z,15.20
2022-08-31T18:35:14.751Z,15.20
2022-08-31T18:37:42.438Z,15.20
2022-08-31T18:40:29.323Z,15.10
2022-08-31T18:43:15.579Z,15.10
2022-08-31T18:45:48.652Z,15.10
2022-08-31T18:48:25.699Z,15.10
2022-08-31T18:50:59.056Z,15.00
2022-08-31T18:53:34.123Z,15.00
2022-08-31T18:56:11.025Z,15.00
2022-08-31T18:58:39.203Z,14.90
2022-08-31T19:01:14.547Z,14.90
2022-08-31T19:03:42.637Z,14.80
2022-08-31T19:06:23.923Z,14.80
2022-08-31T19:08:51.780Z,14.80
2022-08-31T19:20:17.518Z,14.60
2022-08-31T19:27:43.938Z,14.60
2022-08-31T19:30:48.161Z,14.60
2022-08-31T19:37:22.250Z,14.50
2022-08-31T19:40:02.458Z,14.50
2022-08-31T19:43:53.722Z,14.40
2022-08-31T19:52:08.216Z,14.40
2022-08-31T19:59:34.785Z,14.40
2022-08-31T20:03:06.164Z,14.30
2022-08-31T20:05:33.673Z,14.30
2022-08-31T20:08:16.623Z,14.20
2022-08-31T20:10:45.942Z,14.20
2022-08-31T20:13:13.337Z,14.10
2022-08-31T20:15:43.502Z,14.20
2022-08-31T20:18:13.877Z,14.10
2022-08-31T20:20:47.121Z,14.10
2022-08-31T20:23:17.111Z,14.10
2022-08-31T20:25:46.748Z,14.10
2022-08-31T20:28:16.178Z,14.00
2022-08-31T20:30:44.029Z,14.00
2022-08-31T20:33:11.993Z,14.00
2022-08-31T20:35:47.943Z,14.00
2022-08-31T20:38:17.676Z,13.90
2022-08-31T20:40:47.627Z,13.90
2022-08-31T20:43:15.184Z,13.90
2022-08-31T20:45:42.631Z,13.90
2022-08-31T20:48:29.146Z,13.90
2022-08-31T20:50:57.259Z,13.90
2022-08-31T20:53:42.491Z,13.90
2022-08-31T20:56:17.285Z,13.80
2022-08-31T20:58:46.303Z,13.80
2022-08-31T21:01:16.184Z,13.80
2022-08-31T21:03:43.526Z,13.80
2022-08-31T21:06:12.323Z,13.80
2022-08-31T21:08:42.808Z,13.70
2022-08-31T21:11:18.825Z,13.70
2022-08-31T21:13:47.009Z,13.60
2022-08-31T21:16:15.688Z,13.60
2022-08-31T21:18:44.801Z,13.60
2022-08-31T21:21:17.763Z,13.50
2022-08-31T21:24:12.136Z,13.50
2022-08-31T21:26:43.382Z,13.50
2022-08-31T21:29:17.281Z,13.40
2022-08-31T21:34:40.063Z,13.40
2022-08-31T21:37:32.910Z,13.30
2022-08-31T21:40:02.661Z,13.30
2022-08-31T21:42:32.274Z,13.30
2022-08-31T21:44:59.613Z,13.30
2022-08-31T21:47:28.550Z,13.20
2022-08-31T21:49:55.862Z,13.20
2022-08-31T21:52:24.986Z,13.30
2022-08-31T21:54:52.816Z,13.30
2022-08-31T21:57:21.923Z,13.30
2022-08-31T21:59:50.381Z,13.20
2022-08-31T22:02:17.636Z,13.30
2022-08-31T22:04:44.889Z,13.20
2022-08-31T22:07:14.467Z,13.20
2022-08-31T22:09:43.439Z,13.20
2022-08-31T22:12:15.038Z,13.20
2022-08-31T22:14:44.650Z,13.20
2022-08-31T22:17:13.165Z,13.10
2022-08-31T22:19:43.131Z,13.00
2022-08-31T22:22:13.110Z,13.00
2022-08-31T22:24:41.474Z,13.00
2022-08-31T22:27:15.998Z,13.00
2022-08-31T22:29:46.815Z,13.00
2022-08-31T22:32:15.405Z,12.90
2022-08-31T22:34:43.696Z,12.90
2022-08-31T22:37:14.277Z,12.90
2022-08-31T22:39:43.477Z,12.90
2022-08-31T22:42:12.088Z,12.90
2022-08-31T22:44:40.695Z,12.90
2022-08-31T22:47:09.587Z,12.80
2022-08-31T22:49:36.997Z,12.80
2022-08-31T22:52:05.121Z,12.80
2022-08-31T22:54:32.424Z,12.80
2022-08-31T22:57:00.498Z,12.80
2022-08-31T22:59:28.261Z,12.80
2022-08-31T23:02:02.160Z,12.80
2022-08-31T23:04:33.527Z,12.80
2022-08-31T23:07:01.603Z,12.80
2022-08-31T23:09:31.105Z,12.80
2022-08-31T23:12:00.932Z,12.80
2022-08-31T23:14:28.922Z,12.80
2022-08-31T23:16:59.313Z,12.90
2022-08-31T23:19:31.017Z,12.90
2022-08-31T23:21:59.333Z,12.90
2022-08-31T23:24:40.802Z,12.90
2022-08-31T23:27:10.346Z,12.90
2022-08-31T23:29:47.928Z,12.90
2022-08-31T23:32:19.078Z,12.90
2022-08-31T23:34:49.954Z,12.90
2022-08-31T23:37:17.970Z,12.80
2022-08-31T23:39:46.626Z,12.80
2022-08-31T23:42:16.561Z,12.80
2022-08-31T23:44:46.617Z,12.80
2022-08-31T23:47:20.378Z,12.80
2022-08-31T23:49:51.344Z,12.80
2022-08-31T23:52:24.304Z,12.70
2022-08-31T23:54:57.858Z,12.70
2022-08-31T23:57:32.033Z,12.70
